Time;durP1;ratioP1;P1;durP2;ratioP2;P2;SDS_P1;SDS_P2;PMS_P1;PMS_P2;Temp;Humidity;BMP_temperature;BMP_pressure;BME280_temperature;BME280_humidity;BME280_pressure;Samples;Min_cycle;Max_cycle;Signal;HPM_P1;HPM_P2
2022/07/28 00:02:05;;;;;;;5.20;1.10;;;14.40;99.90;;;;;;12426884;28;20045;-35
2022/07/28 00:08:09;;;;;;;6.63;1.17;;;14.30;99.90;;;;;;12426859;28;20148;-40
2022/07/28 00:14:10;;;;;;;7.13;1.42;;;14.20;99.90;;;;;;12425004;28;20077;-35
2022/07/28 00:20:13;;;;;;;10.23;1.38;;;14.00;99.90;;;;;;12429823;28;20082;-39
2022/07/28 00:26:15;;;;;;;6.18;1.40;;;13.90;99.90;;;;;;12433110;28;20060;-39
2022/07/28 00:32:19;;;;;;;8.23;1.25;;;13.90;99.90;;;;;;12432417;28;20123;-39
2022/07/28 00:38:21;;;;;;;5.68;0.98;;;13.80;99.90;;;;;;12410724;28;20065;-40
2022/07/28 00:44:24;;;;;;;6.00;1.27;;;13.70;99.90;;;;;;12430072;28;20567;-39
2022/07/28 00:50:25;;;;;;;6.40;1.15;;;13.80;99.90;;;;;;12426211;28;20487;-39
2022/07/28 00:56:27;;;;;;;2.92;1.10;;;13.70;99.90;;;;;;12410559;28;20080;-35
2022/07/28 01:02:29;;;;;;;5.72;1.08;;;13.60;99.90;;;;;;12417067;28;20050;-35
2022/07/28 01:09:08;;;;;;;4.43;1.10;;;13.60;99.90;;;;;;12420040;28;20065;-40
2022/07/28 01:15:20;;;;;;;6.45;1.45;;;13.60;99.90;;;;;;12434494;28;20050;-35
2022/07/28 01:21:29;;;;;;;5.10;1.20;;;13.50;99.90;;;;;;12421903;28;20050;-40
2022/07/28 01:27:47;;;;;;;5.32;1.65;;;13.40;99.90;;;;;;12417252;28;20065;-39
2022/07/28 01:33:55;;;;;;;2.63;1.00;;;13.30;99.90;;;;;;12434684;28;20494;-39
2022/07/28 01:40:01;;;;;;;3.25;1.10;;;13.30;99.90;;;;;;12431164;28;20050;-35
2022/07/28 01:46:04;;;;;;;7.38;1.33;;;13.20;99.90;;;;;;12430485;28;20078;-39
2022/07/28 01:52:07;;;;;;;5.60;1.13;;;13.20;99.90;;;;;;12415206;28;20493;-35
2022/07/28 01:58:12;;;;;;;5.20;1.20;;;13.20;99.90;;;;;;12399115;28;20071;-35
2022/07/28 02:04:18;;;;;;;3.58;1.00;;;13.10;99.90;;;;;;12415351;28;20050;-35
2022/07/28 02:10:21;;;;;;;4.53;1.10;;;13.10;99.90;;;;;;12421584;28;20548;-35
2022/07/28 02:16:25;;;;;;;5.32;0.88;;;13.00;99.90;;;;;;12401746;28;20050;-39
2022/07/28 02:22:27;;;;;;;5.00;1.02;;;13.00;99.90;;;;;;12429762;28;20535;-39
2022/07/28 02:28:29;;;;;;;7.30;1.70;;;12.90;99.90;;;;;;12405944;28;20066;-35
2022/07/28 02:34:33;;;;;;;4.25;1.25;;;12.90;99.90;;;;;;12421854;28;20119;-39
2022/07/28 02:40:38;;;;;;;4.82;1.27;;;12.90;99.90;;;;;;12407566;28;20058;-40
2022/07/28 02:46:43;;;;;;;7.90;1.35;;;12.80;99.90;;;;;;12418828;28;20133;-35
2022/07/28 02:52:46;;;;;;;4.78;1.20;;;12.80;99.90;;;;;;12423583;28;20046;-35
2022/07/28 02:58:50;;;;;;;4.43;1.00;;;12.70;99.90;;;;;;12418398;28;20057;-35
2022/07/28 03:04:55;;;;;;;4.30;1.13;;;12.80;99.90;;;;;;12420474;28;20046;-40
2022/07/28 03:11:08;;;;;;;3.45;0.98;;;12.90;99.90;;;;;;12401122;28;20054;-39
2022/07/28 03:17:10;;;;;;;7.22;1.30;;;12.80;99.90;;;;;;12419479;28;20541;-40
2022/07/28 03:23:13;;;;;;;3.33;0.90;;;12.90;99.90;;;;;;12440308;28;21318;-35
2022/07/28 03:29:16;;;;;;;4.53;1.30;;;12.90;99.90;;;;;;12427741;28;20483;-41
2022/07/28 03:35:18;;;;;;;4.72;1.40;;;12.80;99.90;;;;;;12425559;28;20157;-35
2022/07/28 03:41:21;;;;;;;7.25;1.10;;;12.80;99.90;;;;;;12437983;28;20166;-40
2022/07/28 03:47:23;;;;;;;3.08;1.10;;;12.80;99.90;;;;;;12442315;28;20141;-40
2022/07/28 03:53:27;;;;;;;4.60;0.90;;;12.70;99.90;;;;;;12436749;28;20545;-40
2022/07/28 03:59:29;;;;;;;3.03;1.10;;;12.70;99.90;;;;;;12409738;28;20096;-35
2022/07/28 04:05:30;;;;;;;4.07;1.63;;;12.70;99.90;;;;;;12422611;28;20046;-35
2022/07/28 04:11:32;;;;;;;4.13;1.30;;;12.60;99.90;;;;;;12414450;28;20070;-35
2022/07/28 04:17:36;;;;;;;5.50;1.20;;;12.60;99.90;;;;;;12421189;28;20057;-41
2022/07/28 04:23:38;;;;;;;4.63;1.30;;;12.70;99.90;;;;;;12426271;28;20108;-35
2022/07/28 04:29:40;;;;;;;6.07;1.20;;;12.70;99.90;;;;;;12417115;28;20152;-38
2022/07/28 04:35:41;;;;;;;5.63;1.33;;;12.70;99.90;;;;;;12431557;28;20046;-43
2022/07/28 04:41:43;;;;;;;4.20;1.30;;;12.60;99.90;;;;;;12413869;28;20113;-40
2022/07/28 04:47:45;;;;;;;5.18;1.30;;;12.60;99.90;;;;;;12409524;28;20058;-35
2022/07/28 04:53:47;;;;;;;6.95;1.30;;;12.50;99.90;;;;;;12398911;28;20049;-35
2022/07/28 04:59:49;;;;;;;5.53;1.20;;;12.50;99.90;;;;;;12410908;28;20111;-40
2022/07/28 05:05:51;;;;;;;3.03;1.02;;;12.40;99.90;;;;;;12423191;28;20065;-39
2022/07/28 05:11:55;;;;;;;2.17;0.82;;;12.50;99.90;;;;;;12416300;28;20089;-39
2022/07/28 05:17:56;;;;;;;4.75;1.20;;;12.30;99.90;;;;;;12418723;28;20085;-40
2022/07/28 05:23:58;;;;;;;4.88;1.30;;;12.40;99.90;;;;;;12427628;28;20051;-40
2022/07/28 05:30:00;;;;;;;5.82;1.33;;;12.50;99.90;;;;;;12428803;28;20050;-40
2022/07/28 05:36:03;;;;;;;4.93;1.25;;;12.60;99.90;;;;;;12410581;28;20054;-35
2022/07/28 05:42:05;;;;;;;8.75;1.90;;;12.60;99.90;;;;;;12411852;28;20152;-35
2022/07/28 05:48:07;;;;;;;4.43;1.42;;;12.60;99.90;;;;;;12421553;28;20065;-35
2022/07/28 05:54:08;;;;;;;6.30;1.40;;;12.60;99.90;;;;;;12426968;28;20115;-40
2022/07/28 06:00:13;;;;;;;3.85;1.30;;;12.70;99.90;;;;;;12425651;28;20053;-35
2022/07/28 06:06:16;;;;;;;4.75;1.00;;;12.80;99.90;;;;;;12430507;28;20133;-40
2022/07/28 06:12:18;;;;;;;11.80;1.40;;;12.80;99.90;;;;;;12427558;28;20045;-35
2022/07/28 06:18:21;;;;;;;3.65;1.00;;;13.00;99.90;;;;;;12423229;28;20054;-35
2022/07/28 06:24:22;;;;;;;6.28;1.38;;;13.10;99.90;;;;;;12439814;28;20392;-39
2022/07/28 06:30:25;;;;;;;6.80;1.30;;;13.30;99.90;;;;;;12424882;28;20065;-40
2022/07/28 06:36:27;;;;;;;7.97;1.17;;;13.40;99.90;;;;;;12417326;28;20093;-40
2022/07/28 06:42:29;;;;;;;5.18;1.00;;;13.50;99.90;;;;;;12422593;28;20058;-35
2022/07/28 06:48:31;;;;;;;6.30;0.90;;;13.70;99.90;;;;;;12396054;28;1065997;-39
2022/07/28 06:54:33;;;;;;;4.68;1.10;;;14.10;99.90;;;;;;12436866;28;20049;-39
2022/07/28 07:00:34;;;;;;;10.40;1.05;;;14.20;99.90;;;;;;12429940;28;20100;-40
2022/07/28 07:06:36;;;;;;;4.90;1.27;;;14.50;99.90;;;;;;12436212;28;20042;-39
2022/07/28 07:12:38;;;;;;;1.83;0.70;;;14.70;99.90;;;;;;12418922;28;20491;-40
2022/07/28 07:18:40;;;;;;;5.60;0.90;;;14.70;99.90;;;;;;12424521;28;20099;-40
2022/07/28 07:24:42;;;;;;;7.57;1.00;;;14.80;99.90;;;;;;12423568;28;20105;-39
2022/07/28 07:30:44;;;;;;;3.50;0.88;;;15.00;99.90;;;;;;12438294;28;20141;-40
2022/07/28 07:36:45;;;;;;;1.23;0.60;;;15.20;99.90;;;;;;12436322;28;20054;-40
2022/07/28 07:42:47;;;;;;;2.88;0.85;;;15.40;99.90;;;;;;12435857;28;20054;-40
2022/07/28 07:48:49;;;;;;;3.42;0.70;;;15.50;99.90;;;;;;12422766;28;20050;-35
2022/07/28 07:54:51;;;;;;;3.72;0.63;;;15.50;99.90;;;;;;12429004;28;20047;-35
2022/07/28 08:00:53;;;;;;;2.47;0.63;;;15.60;99.90;;;;;;12435303;28;20140;-35
2022/07/28 08:06:55;;;;;;;4.82;0.70;;;15.70;99.90;;;;;;12426871;28;20105;-40
2022/07/28 08:12:57;;;;;;;2.88;0.75;;;15.90;99.90;;;;;;12420246;28;20059;-40
2022/07/28 08:18:58;;;;;;;2.95;0.70;;;16.10;99.90;;;;;;12425442;28;20050;-36
2022/07/28 08:25:00;;;;;;;3.92;0.77;;;16.10;99.90;;;;;;12419417;28;20422;-39
2022/07/28 08:31:02;;;;;;;5.90;1.00;;;16.30;99.90;;;;;;12436211;28;20072;-40
2022/07/28 08:37:05;;;;;;;5.15;1.00;;;16.40;99.90;;;;;;12411528;28;20058;-35
2022/07/28 08:43:17;;;;;;;2.95;0.55;;;16.50;99.90;;;;;;12436745;28;20089;-35
2022/07/28 08:49:19;;;;;;;6.72;0.82;;;16.50;99.90;;;;;;12431012;28;20107;-35
2022/07/28 08:55:24;;;;;;;4.03;0.80;;;16.80;99.90;;;;;;12422388;28;20421;-37
2022/07/28 09:01:33;;;;;;;5.57;0.90;;;16.90;99.90;;;;;;12433437;28;20081;-39
2022/07/28 09:07:41;;;;;;;6.80;1.25;;;17.00;99.90;;;;;;12420996;28;20207;-40
2022/07/28 09:13:43;;;;;;;3.80;1.05;;;17.20;99.90;;;;;;12428411;28;20046;-40
2022/07/28 09:19:44;;;;;;;2.88;0.70;;;17.20;99.90;;;;;;12413237;28;20059;-35
2022/07/28 09:25:46;;;;;;;3.42;1.00;;;17.10;99.90;;;;;;12428067;28;20093;-40
2022/07/28 09:31:51;;;;;;;2.85;0.98;;;17.40;99.90;;;;;;12424692;28;20093;-35
2022/07/28 09:37:58;;;;;;;5.13;0.93;;;17.60;99.90;;;;;;12420159;28;20138;-39
2022/07/28 09:44:00;;;;;;;3.92;0.80;;;17.80;99.90;;;;;;12412741;28;20050;-36
2022/07/28 09:50:02;;;;;;;7.07;0.93;;;17.80;99.90;;;;;;12418967;28;20180;-39
2022/07/28 09:56:04;;;;;;;3.13;0.90;;;17.60;99.90;;;;;;12417016;28;20068;-39
2022/07/28 10:02:06;;;;;;;3.00;0.88;;;17.90;99.90;;;;;;12414758;28;20050;-39
2022/07/28 10:08:09;;;;;;;4.35;1.00;;;18.10;99.90;;;;;;12426170;28;20144;-35
2022/07/28 10:14:12;;;;;;;5.40;1.10;;;18.00;99.90;;;;;;12421573;28;20409;-42
2022/07/28 10:20:15;;;;;;;4.33;0.80;;;18.00;99.90;;;;;;12420241;28;20124;-41
2022/07/28 10:26:20;;;;;;;3.13;0.65;;;18.30;99.90;;;;;;12434880;28;20451;-35
2022/07/28 10:32:22;;;;;;;4.50;0.90;;;18.80;99.90;;;;;;12422572;28;20061;-35
2022/07/28 10:38:35;;;;;;;9.20;0.95;;;19.00;99.90;;;;;;12410887;28;20096;-40
2022/07/28 10:44:38;;;;;;;3.60;0.90;;;19.30;99.90;;;;;;12415284;28;20051;-42
2022/07/28 10:50:40;;;;;;;5.67;1.17;;;19.70;99.90;;;;;;12415908;28;20144;-40
2022/07/28 10:56:54;;;;;;;5.28;0.80;;;19.80;99.90;;;;;;12426437;28;20421;-36
2022/07/28 11:03:00;;;;;;;3.75;0.70;;;20.20;99.90;;;;;;12427963;28;20053;-40
2022/07/28 11:09:21;;;;;;;3.80;1.20;;;20.40;99.90;;;;;;12443399;28;20062;-40
2022/07/28 11:15:36;;;;;;;3.90;1.00;;;20.70;99.90;;;;;;12415045;28;20090;-36
2022/07/28 11:28:19;;;;;;;5.03;1.00;;;20.90;99.90;;;;;;12419651;28;20227;-35
2022/07/28 11:34:23;;;;;;;3.83;0.77;;;20.90;99.90;;;;;;12439723;28;20058;-39
2022/07/28 11:40:38;;;;;;;2.45;0.80;;;21.40;99.90;;;;;;12430955;28;20065;-41
2022/07/28 11:46:41;;;;;;;3.65;0.95;;;21.40;99.90;;;;;;12423790;28;20449;-39
2022/07/28 11:52:54;;;;;;;2.23;0.67;;;21.60;99.90;;;;;;12418596;28;20112;-35
2022/07/28 11:58:57;;;;;;;2.87;0.60;;;21.10;99.90;;;;;;12435441;28;20081;-39
2022/07/28 12:05:01;;;;;;;;;;;21.00;99.90;;;;;;12427009;28;20108;-39
2022/07/28 12:11:04;;;;;;;7.68;1.17;;;21.50;99.90;;;;;;12438677;28;19922;-40
2022/07/28 12:17:06;;;;;;;4.80;0.95;;;21.50;99.90;;;;;;12437122;28;20257;-42
2022/07/28 12:23:09;;;;;;;2.78;0.73;;;21.80;99.90;;;;;;12432155;28;20521;-39
2022/07/28 12:29:12;;;;;;;5.00;1.00;;;22.00;99.90;;;;;;12434014;28;20062;-36
2022/07/28 12:35:16;;;;;;;7.38;0.95;;;21.90;99.90;;;;;;12424686;28;20293;-41
2022/07/28 12:41:18;;;;;;;5.78;1.20;;;21.80;99.90;;;;;;12440621;28;20095;-40
2022/07/28 12:47:26;;;;;;;5.32;0.90;;;22.20;99.90;;;;;;12427768;28;20072;-39
2022/07/28 12:53:28;;;;;;;7.50;0.80;;;22.20;99.90;;;;;;12424495;28;20052;-40
2022/07/28 12:59:35;;;;;;;4.03;1.15;;;21.90;99.90;;;;;;12435154;28;20050;-36
2022/07/28 13:12:00;;;;;;;4.93;0.98;;;22.00;99.90;;;;;;12408644;28;20054;-41
2022/07/28 13:18:03;;;;;;;2.63;0.88;;;22.20;99.90;;;;;;12424317;28;20057;-40
2022/07/28 13:24:09;;;;;;;3.13;0.80;;;22.20;99.90;;;;;;12422926;28;20135;-36
2022/07/28 13:30:11;;;;;;;5.75;0.90;;;22.50;99.90;;;;;;12432540;28;20133;-39
2022/07/28 13:36:13;;;;;;;2.67;0.90;;;22.50;99.90;;;;;;12430000;28;20061;-40
2022/07/28 13:42:15;;;;;;;2.23;0.90;;;22.50;99.90;;;;;;12437885;28;20107;-41
2022/07/28 13:48:18;;;;;;;3.58;1.10;;;22.50;99.90;;;;;;12428126;28;20051;-41
2022/07/28 13:54:20;;;;;;;6.78;1.20;;;22.40;99.90;;;;;;12433506;28;20580;-40
2022/07/28 14:00:22;;;;;;;3.13;0.93;;;22.20;99.90;;;;;;12423697;28;20088;-41
2022/07/28 14:06:24;;;;;;;5.15;1.02;;;22.20;99.90;;;;;;12435595;28;20065;-40
2022/07/28 14:12:27;;;;;;;6.25;1.25;;;22.50;99.90;;;;;;12422827;28;20133;-40
2022/07/28 14:18:29;;;;;;;5.70;1.23;;;22.50;99.90;;;;;;12432389;28;20184;-36
2022/07/28 14:24:31;;;;;;;3.78;1.00;;;22.50;99.90;;;;;;12422145;28;20809;-40
2022/07/28 14:30:33;;;;;;;4.03;0.90;;;22.50;99.90;;;;;;12422420;28;20053;-39
2022/07/28 14:36:37;;;;;;;4.72;1.10;;;22.40;99.90;;;;;;12432421;28;20418;-41
2022/07/28 14:42:40;;;;;;;5.78;0.80;;;22.60;99.90;;;;;;12438172;28;20049;-40
2022/07/28 14:48:42;;;;;;;3.17;0.98;;;22.30;99.90;;;;;;12441572;28;20494;-39
2022/07/28 14:54:46;;;;;;;3.97;1.20;;;22.50;99.90;;;;;;12431166;28;20043;-35
2022/07/28 15:00:48;;;;;;;4.90;1.10;;;22.50;99.90;;;;;;12430214;28;20049;-35
2022/07/28 15:06:50;;;;;;;2.90;0.90;;;22.60;99.90;;;;;;12440858;28;20053;-39
2022/07/28 15:12:52;;;;;;;5.45;1.10;;;22.60;99.90;;;;;;12442613;28;20415;-39
2022/07/28 15:18:54;;;;;;;3.47;1.40;;;22.40;99.90;;;;;;12426721;28;20489;-41
2022/07/28 15:24:56;;;;;;;5.22;0.90;;;22.20;99.90;;;;;;12427865;28;20042;-39
2022/07/28 15:31:00;;;;;;;5.97;0.90;;;22.10;99.90;;;;;;12445726;28;20058;-36
2022/07/28 15:37:02;;;;;;;3.88;1.02;;;22.30;99.90;;;;;;12424351;28;20137;-39
2022/07/28 15:43:04;;;;;;;4.90;0.90;;;22.40;99.90;;;;;;12413034;28;20085;-40
2022/07/28 15:49:07;;;;;;;5.20;1.13;;;22.30;99.90;;;;;;12426372;28;20402;-35
2022/07/28 15:55:09;;;;;;;4.75;0.90;;;22.10;99.90;;;;;;12415122;28;20054;-39
2022/07/28 16:01:13;;;;;;;3.35;0.93;;;22.30;99.90;;;;;;12425407;28;20517;-39
2022/07/28 16:07:18;;;;;;;5.63;1.35;;;22.00;99.90;;;;;;12427400;28;20509;-36
2022/07/28 16:13:23;;;;;;;3.15;1.10;;;22.00;99.90;;;;;;12431308;28;20062;-39
2022/07/28 16:19:37;;;;;;;6.60;1.00;;;21.90;99.90;;;;;;12417733;28;20100;-39
2022/07/28 16:25:50;;;;;;;5.40;0.90;;;21.80;99.90;;;;;;12422266;28;20053;-35
2022/07/28 16:31:52;;;;;;;5.55;0.90;;;21.70;99.90;;;;;;12420737;28;20049;-35
2022/07/28 16:37:54;;;;;;;5.22;1.00;;;21.80;99.90;;;;;;12426634;28;20256;-35
2022/07/28 16:43:56;;;;;;;3.67;0.90;;;22.10;99.90;;;;;;12419914;28;20057;-39
2022/07/28 16:49:58;;;;;;;3.45;1.10;;;22.30;99.90;;;;;;12417796;28;20534;-35
2022/07/28 16:56:00;;;;;;;8.63;1.95;;;22.20;99.90;;;;;;12420890;28;20185;-35
2022/07/28 17:02:02;;;;;;;5.28;0.88;;;21.80;99.90;;;;;;12428536;28;20487;-39
2022/07/28 17:08:04;;;;;;;3.78;0.77;;;21.70;99.90;;;;;;12423495;28;20058;-40
2022/07/28 17:14:07;;;;;;;4.70;1.13;;;21.70;99.90;;;;;;12406526;28;20196;-35
2022/07/28 17:20:09;;;;;;;3.90;0.90;;;21.70;99.90;;;;;;12429762;28;20188;-39
2022/07/28 17:26:11;;;;;;;4.38;1.20;;;21.60;99.90;;;;;;12441007;28;20072;-35
2022/07/28 17:32:34;;;;;;;3.80;1.20;;;21.60;99.90;;;;;;12427854;28;20054;-35
2022/07/28 17:38:36;;;;;;;6.45;1.20;;;21.60;99.90;;;;;;12425634;28;20054;-40
2022/07/28 17:44:38;;;;;;;4.00;0.80;;;21.60;99.90;;;;;;12418941;28;20065;-35
2022/07/28 17:50:43;;;;;;;7.32;1.20;;;21.70;99.90;;;;;;12418709;28;20050;-35
2022/07/28 17:56:46;;;;;;;2.95;0.85;;;21.80;99.90;;;;;;12425935;28;20145;-40
2022/07/28 18:02:48;;;;;;;;;;;21.60;99.90;;;;;;12425012;28;20115;-40
2022/07/28 18:08:50;;;;;;;6.35;0.80;;;21.50;99.90;;;;;;12416960;28;19929;-35
2022/07/28 18:14:53;;;;;;;6.38;1.13;;;21.40;99.90;;;;;;12422981;28;20183;-39
2022/07/28 18:20:55;;;;;;;2.53;1.00;;;21.10;99.90;;;;;;12447152;28;20054;-36
2022/07/28 18:26:57;;;;;;;2.75;0.90;;;20.90;99.90;;;;;;12432651;28;20689;-40
2022/07/28 18:33:00;;;;;;;8.27;1.13;;;20.70;99.90;;;;;;12429594;28;20062;-39
2022/07/28 18:39:02;;;;;;;;;;;20.60;99.90;;;;;;12440162;28;20050;-35
2022/07/28 18:45:05;;;;;;;6.70;1.20;;;20.40;99.90;;;;;;12441508;28;19987;-35
2022/07/28 18:51:07;;;;;;;3.50;1.10;;;20.20;99.90;;;;;;12403770;28;20588;-42
2022/07/28 18:57:09;;;;;;;9.23;0.93;;;20.10;99.90;;;;;;12404415;28;20137;-35
2022/07/28 19:03:12;;;;;;;10.23;1.40;;;20.00;99.90;;;;;;12439521;28;20053;-39
2022/07/28 19:09:14;;;;;;;5.60;1.23;;;20.00;99.90;;;;;;12442025;28;20498;-40
2022/07/28 19:15:16;;;;;;;5.90;1.10;;;19.80;99.90;;;;;;12419647;28;20297;-35
2022/07/28 19:21:18;;;;;;;4.65;1.10;;;19.80;99.90;;;;;;12435818;28;20652;-35
2022/07/28 19:27:20;;;;;;;7.80;1.20;;;19.80;99.90;;;;;;12428800;28;20059;-35
2022/07/28 19:33:25;;;;;;;5.88;0.90;;;19.60;99.90;;;;;;12424833;28;20078;-35
2022/07/28 19:39:30;;;;;;;5.20;1.20;;;19.50;99.90;;;;;;12435250;28;20621;-39
2022/07/28 19:45:32;;;;;;;5.35;1.10;;;19.40;99.90;;;;;;12433892;28;20410;-35
2022/07/28 19:51:35;;;;;;;4.55;1.02;;;19.50;99.90;;;;;;12434582;28;20054;-41
2022/07/28 19:57:37;;;;;;;7.40;1.23;;;19.50;99.90;;;;;;12435949;28;20137;-35
2022/07/28 20:03:39;;;;;;;8.32;1.00;;;19.40;99.90;;;;;;12413164;28;20054;-39
2022/07/28 20:10:00;;;;;;;3.80;0.90;;;19.30;99.90;;;;;;12428512;28;20053;-39
2022/07/28 20:16:03;;;;;;;4.78;1.05;;;19.10;99.90;;;;;;12416056;28;20449;-35
2022/07/28 20:22:06;;;;;;;2.53;0.70;;;19.10;99.90;;;;;;12429899;28;20548;-39
2022/07/28 20:28:09;;;;;;;5.60;1.17;;;19.00;99.90;;;;;;12416271;28;20061;-35
2022/07/28 20:34:11;;;;;;;3.93;1.00;;;18.90;99.90;;;;;;12428663;28;20124;-35
2022/07/28 20:40:16;;;;;;;11.50;1.40;;;19.10;99.90;;;;;;12423031;28;20133;-35
2022/07/28 20:46:23;;;;;;;6.32;1.20;;;18.90;99.90;;;;;;12406929;28;20057;-41
2022/07/28 20:52:25;;;;;;;6.50;1.40;;;18.80;99.90;;;;;;12433156;28;20104;-35
2022/07/28 20:58:27;;;;;;;6.20;1.30;;;18.60;99.90;;;;;;12444766;28;20053;-35
2022/07/28 21:04:30;;;;;;;5.82;1.00;;;18.50;99.90;;;;;;12425789;28;20491;-35
2022/07/28 21:10:34;;;;;;;3.57;1.00;;;18.40;99.90;;;;;;12402828;28;20053;-39
2022/07/28 21:16:35;;;;;;;4.70;0.98;;;18.40;99.90;;;;;;12427472;28;20107;-39
2022/07/28 21:22:37;;;;;;;9.20;1.20;;;18.30;99.90;;;;;;12428289;28;20061;-35
2022/07/28 21:34:59;;;;;;;7.03;1.00;;;18.10;99.90;;;;;;12417405;28;20060;-35
2022/07/28 21:41:02;;;;;;;4.20;0.85;;;18.00;99.90;;;;;;12423625;28;20132;-40
2022/07/28 21:47:04;;;;;;;2.92;0.82;;;17.90;99.90;;;;;;12430670;28;20399;-39
2022/07/28 21:53:05;;;;;;;3.78;1.02;;;17.80;99.90;;;;;;12414181;28;20056;-41
2022/07/28 21:59:07;;;;;;;4.78;0.90;;;17.70;99.90;;;;;;12436218;28;20469;-35
2022/07/28 22:05:09;;;;;;;6.97;0.90;;;17.60;99.90;;;;;;12421884;28;20463;-35
2022/07/28 22:11:11;;;;;;;4.78;1.10;;;17.60;99.90;;;;;;12439448;28;20120;-40
2022/07/28 22:17:12;;;;;;;3.15;1.10;;;17.50;99.90;;;;;;12424163;28;20050;-39
2022/07/28 22:23:14;;;;;;;3.72;0.90;;;17.40;99.90;;;;;;12419105;28;20085;-40
2022/07/28 22:29:30;;;;;;;5.13;1.15;;;17.40;99.90;;;;;;12423536;28;20064;-39
2022/07/28 22:35:32;;;;;;;6.03;1.17;;;17.30;99.90;;;;;;12429463;28;20517;-40
2022/07/28 22:41:35;;;;;;;4.72;1.20;;;17.20;99.90;;;;;;12435201;28;20062;-35
2022/07/28 22:47:37;;;;;;;4.35;1.33;;;17.10;99.90;;;;;;12417849;28;20137;-39
2022/07/28 22:53:39;;;;;;;4.72;1.00;;;17.10;99.90;;;;;;12430476;28;20085;-38
2022/07/28 22:59:41;;;;;;;4.70;1.45;;;17.10;99.90;;;;;;12405841;28;20112;-35
2022/07/28 23:05:47;;;;;;;5.53;1.00;;;17.00;99.90;;;;;;12418597;28;20038;-35
2022/07/28 23:11:51;;;;;;;2.65;1.05;;;17.10;99.90;;;;;;12416076;28;20506;-40
2022/07/28 23:17:56;;;;;;;5.05;1.10;;;17.00;99.90;;;;;;12425056;28;20058;-39
2022/07/28 23:23:59;;;;;;;5.65;1.10;;;17.00;99.90;;;;;;12427026;28;20133;-39
2022/07/28 23:30:01;;;;;;;5.45;1.00;;;16.90;99.90;;;;;;12438342;28;20100;-35
2022/07/28 23:36:05;;;;;;;5.85;1.10;;;17.00;99.90;;;;;;12447297;28;20494;-35
2022/07/28 23:42:06;;;;;;;2.73;1.00;;;16.90;99.90;;;;;;12434827;28;20085;-38
2022/07/28 23:48:08;;;;;;;6.15;1.25;;;16.90;99.90;;;;;;12433531;28;20362;-35
2022/07/28 23:54:10;;;;;;;4.25;1.30;;;16.80;99.90;;;;;;12422310;28;20457;-39
